Time;durP1;ratioP1;P1;durP2;ratioP2;P2;SDS_P1;SDS_P2;PMS_P1;PMS_P2;Temp;Humidity;BMP_temperature;BMP_pressure;BME280_temperature;BME280_humidity;BME280_pressure;Samples;Min_cycle;Max_cycle;Signal;HPM_P1;HPM_P2
2023/10/20 00:00:37;;;;;;;1999.90;999.90;;;;;;;11.12;100.00;91776.91;5066343;28;20169;-53
2023/10/20 00:03:02;;;;;;;1999.90;999.90;;;;;;;11.09;100.00;91758.78;5066815;28;20176;-52
2023/10/20 00:05:28;;;;;;;1999.90;999.90;;;;;;;11.11;100.00;91750.84;5067021;28;20198;-54
2023/10/20 00:07:53;;;;;;;1999.90;999.90;;;;;;;11.09;100.00;91747.88;5066338;28;20180;-54
2023/10/20 00:10:19;;;;;;;1999.90;999.90;;;;;;;11.07;100.00;91755.81;5066101;28;20361;-52
2023/10/20 00:12:44;;;;;;;1999.90;999.90;;;;;;;11.06;100.00;91746.88;5066230;28;20168;-52
2023/10/20 00:15:13;;;;;;;1999.90;999.90;;;;;;;11.05;100.00;91752.81;5065931;28;20194;-48
2023/10/20 00:17:39;;;;;;;1999.90;999.90;;;;;;;11.03;100.00;91744.41;5066181;28;20191;-52
2023/10/20 00:20:11;;;;;;;1999.90;999.90;;;;;;;11.04;100.00;91751.34;5065957;28;20189;-50
2023/10/20 00:22:37;;;;;;;1999.90;999.90;;;;;;;11.06;100.00;91752.34;5065743;28;20236;-53
2023/10/20 00:25:02;;;;;;;1999.90;999.90;;;;;;;11.07;100.00;91750.34;5065576;28;20165;-53
2023/10/20 00:27:28;;;;;;;1999.90;999.90;;;;;;;11.07;100.00;91744.91;5065894;28;20206;-49
2023/10/20 00:29:53;;;;;;;1999.90;999.90;;;;;;;11.08;100.00;91740.91;5066873;28;20159;-52
2023/10/20 00:32:19;;;;;;;1999.90;999.90;;;;;;;11.15;100.00;91734.97;5065621;28;20511;-50
2023/10/20 00:34:45;;;;;;;1999.90;999.90;;;;;;;11.16;100.00;91726.28;5065570;28;20234;-54
2023/10/20 00:37:10;;;;;;;1999.90;999.90;;;;;;;11.17;100.00;91721.56;5065756;28;20183;-54
2023/10/20 00:39:36;;;;;;;1999.90;999.90;;;;;;;11.17;100.00;91710.63;5066624;28;20192;-51
2023/10/20 00:42:02;;;;;;;1999.90;999.90;;;;;;;11.15;100.00;91692.00;5065381;28;20282;-53
2023/10/20 00:44:28;;;;;;;1999.90;999.90;;;;;;;11.18;100.00;91684.81;5065577;28;20250;-52
2023/10/20 00:46:53;;;;;;;1999.90;999.90;;;;;;;11.18;100.00;91671.19;5065531;28;20179;-50
2023/10/20 00:49:19;;;;;;;1999.90;999.90;;;;;;;11.15;100.00;91672.88;5065434;28;20287;-54
2023/10/20 00:51:44;;;;;;;1999.90;999.90;;;;;;;11.20;100.00;91676.88;5065486;28;20255;-53
2023/10/20 00:54:13;;;;;;;1999.90;999.90;;;;;;;11.17;100.00;91672.41;5065240;28;20245;-52
2023/10/20 00:56:41;;;;;;;1999.90;999.90;;;;;;;11.17;100.00;91669.66;5065444;28;20172;-50
2023/10/20 00:59:08;;;;;;;1999.90;999.90;;;;;;;11.20;100.00;91663.22;5065212;28;20234;-52
2023/10/20 01:01:34;;;;;;;1999.90;999.90;;;;;;;11.19;100.00;91659.00;5065798;28;20251;-52
2023/10/20 01:03:59;;;;;;;1999.90;999.90;;;;;;;11.20;100.00;91655.78;5065892;28;20180;-54
2023/10/20 01:06:25;;;;;;;1999.90;999.90;;;;;;;11.21;100.00;91651.03;5064870;28;20421;-53
2023/10/20 01:08:55;;;;;;;1999.90;999.90;;;;;;;11.22;100.00;91653.28;5065516;28;20169;-53
2023/10/20 01:11:20;;;;;;;1999.90;999.90;;;;;;;11.24;100.00;91650.06;5065033;28;20355;-53
2023/10/20 01:13:46;;;;;;;1999.90;999.90;;;;;;;11.27;100.00;91643.59;5064898;28;20279;-50
2023/10/20 01:16:12;;;;;;;1999.90;999.90;;;;;;;11.30;100.00;91637.91;5065681;28;20177;-53
2023/10/20 01:18:37;;;;;;;1999.90;999.90;;;;;;;11.37;100.00;91631.91;5065407;28;20226;-51
2023/10/20 01:21:04;;;;;;;1999.90;999.90;;;;;;;11.35;100.00;91628.19;5064805;28;20177;-53
2023/10/20 01:23:29;;;;;;;1999.90;999.90;;;;;;;11.34;100.00;91626.69;5064850;28;20179;-52
2023/10/20 01:25:56;;;;;;;1999.90;999.90;;;;;;;11.29;100.00;91614.53;5064520;28;20168;-53
2023/10/20 01:28:22;;;;;;;1999.90;999.90;;;;;;;11.30;100.00;91609.81;5065246;28;20348;-52
2023/10/20 01:30:47;;;;;;;1999.90;999.90;;;;;;;11.30;100.00;91598.91;5064827;28;20171;-51
2023/10/20 01:33:13;;;;;;;1999.90;999.90;;;;;;;11.29;100.00;91608.34;5066970;28;20178;-52
2023/10/20 01:35:39;;;;;;;1999.90;999.90;;;;;;;11.31;100.00;91614.03;5068014;28;20199;-53
2023/10/20 01:38:04;;;;;;;1999.90;999.90;;;;;;;11.31;100.00;91611.31;5068241;28;20183;-53
2023/10/20 01:40:30;;;;;;;1999.90;999.90;;;;;;;11.32;100.00;91599.13;5067772;28;20171;-50
2023/10/20 01:42:55;;;;;;;1999.90;999.90;;;;;;;11.23;100.00;91583.78;5067210;28;20175;-53
2023/10/20 01:45:21;;;;;;;1999.90;999.90;;;;;;;11.23;100.00;91574.84;5068315;28;20346;-51
2023/10/20 01:47:47;;;;;;;1999.90;999.90;;;;;;;11.21;100.00;91577.31;5067726;28;20251;-53
2023/10/20 01:50:12;;;;;;;1999.90;999.90;;;;;;;11.15;100.00;91582.06;5068094;28;20453;-52
2023/10/20 01:52:38;;;;;;;1999.90;999.90;;;;;;;11.29;100.00;91586.50;5068042;28;20170;-52
2023/10/20 01:55:04;;;;;;;1999.90;999.90;;;;;;;11.15;100.00;91593.72;5068001;28;20204;-54
2023/10/20 01:57:29;;;;;;;1999.90;999.90;;;;;;;11.11;100.00;91587.03;5067613;28;20172;-54
2023/10/20 01:59:54;;;;;;;1999.90;999.90;;;;;;;11.12;100.00;91588.50;5067544;28;20180;-53
2023/10/20 02:02:20;;;;;;;1999.90;999.90;;;;;;;11.11;100.00;91595.22;5067997;28;20214;-53
2023/10/20 02:04:46;;;;;;;1999.90;999.90;;;;;;;11.07;100.00;91592.00;5067617;28;20252;-51
2023/10/20 02:07:12;;;;;;;1999.90;999.90;;;;;;;11.07;100.00;91586.53;5067283;28;20178;-53
2023/10/20 02:09:37;;;;;;;1999.90;999.90;;;;;;;11.06;100.00;91585.03;5067830;28;20172;-54
2023/10/20 02:12:04;;;;;;;1999.90;999.90;;;;;;;11.01;100.00;91577.59;5067692;28;20226;-53
2023/10/20 02:14:30;;;;;;;1999.90;999.90;;;;;;;10.99;100.00;91563.69;5067077;28;20206;-53
2023/10/20 02:16:56;;;;;;;1999.90;999.90;;;;;;;11.01;100.00;91558.50;5067737;28;20171;-51
2023/10/20 02:19:22;;;;;;;1999.90;999.90;;;;;;;10.98;100.00;91554.03;5066868;28;20256;-53
2023/10/20 02:21:47;;;;;;;1999.90;999.90;;;;;;;11.05;100.00;91535.16;5067216;28;20210;-54
2023/10/20 02:24:13;;;;;;;1999.90;999.90;;;;;;;10.93;100.00;91528.22;5067640;28;20175;-52
2023/10/20 02:26:38;;;;;;;1999.90;999.90;;;;;;;11.04;100.00;91516.56;5067618;28;20224;-48
2023/10/20 02:29:04;;;;;;;1999.90;999.90;;;;;;;10.96;100.00;91488.28;5067090;28;20179;-50
2023/10/20 02:31:29;;;;;;;1999.90;999.90;;;;;;;10.93;100.00;91483.84;5067592;28;20180;-48
2023/10/20 02:33:54;;;;;;;1999.90;999.90;;;;;;;10.87;100.00;91496.75;5067056;28;20382;-51
2023/10/20 02:36:21;;;;;;;1999.90;999.90;;;;;;;10.91;100.00;91502.69;5066924;28;20214;-53
2023/10/20 02:38:53;;;;;;;1999.90;999.90;;;;;;;10.90;100.00;91484.81;5067422;28;20194;-55
2023/10/20 02:41:19;;;;;;;1999.90;999.90;;;;;;;10.87;100.00;91472.19;5067183;28;20194;-50
2023/10/20 02:43:44;;;;;;;1999.90;999.90;;;;;;;10.88;100.00;91498.22;5067068;28;20201;-52
2023/10/20 02:46:12;;;;;;;1999.90;999.90;;;;;;;10.93;100.00;91500.22;5067382;28;20178;-53
2023/10/20 02:48:37;;;;;;;1999.90;999.90;;;;;;;10.98;100.00;91466.69;5066943;28;20181;-54
2023/10/20 02:51:12;;;;;;;1999.90;999.90;;;;;;;11.03;100.00;91455.75;5066964;28;20240;-53
2023/10/20 02:53:39;;;;;;;1999.90;999.90;;;;;;;10.93;100.00;91435.44;5066786;28;20569;-55
2023/10/20 02:56:16;;;;;;;1999.90;999.90;;;;;;;10.93;100.00;91429.97;5068661;28;20182;-53
2023/10/20 02:58:45;;;;;;;1999.90;999.90;;;;;;;10.91;100.00;91431.72;5070907;28;20176;-56
2023/10/20 03:01:17;;;;;;;1999.90;999.90;;;;;;;10.89;100.00;91423.31;5071329;28;20195;-54
2023/10/20 03:03:43;;;;;;;1999.90;999.90;;;;;;;10.91;100.00;91429.00;5071248;28;20473;-54
2023/10/20 03:06:09;;;;;;;1999.90;999.90;;;;;;;10.94;100.00;91414.34;5070683;28;20183;-54
2023/10/20 03:08:36;;;;;;;1999.90;999.90;;;;;;;10.98;100.00;91401.16;5071167;28;20175;-54
2023/10/20 03:11:02;;;;;;;1999.90;999.90;;;;;;;10.97;100.00;91386.03;5070802;28;20171;-57
2023/10/20 03:13:27;;;;;;;1999.90;999.90;;;;;;;10.91;100.00;91363.50;5070483;28;20199;-55
2023/10/20 03:15:54;;;;;;;1999.90;999.90;;;;;;;10.91;100.00;91366.22;5070582;28;20171;-54
2023/10/20 03:18:20;;;;;;;1999.90;999.90;;;;;;;10.92;100.00;91367.72;5070170;28;20180;-53
2023/10/20 03:20:47;;;;;;;1999.90;999.90;;;;;;;10.89;100.00;91371.44;5070564;28;20211;-51
2023/10/20 03:23:14;;;;;;;1999.90;999.90;;;;;;;10.89;100.00;91382.38;5070392;28;20252;-54
2023/10/20 03:25:40;;;;;;;1999.90;999.90;;;;;;;10.91;100.00;91377.13;5070451;28;20207;-52
2023/10/20 03:28:07;;;;;;;1999.90;999.90;;;;;;;10.98;100.00;91373.88;5070318;28;20177;-55
2023/10/20 03:30:42;;;;;;;1999.90;999.90;;;;;;;10.93;100.00;91374.66;5070258;28;20172;-53
2023/10/20 03:33:10;;;;;;;1999.90;999.90;;;;;;;10.94;100.00;91378.88;5070459;28;20172;-54
2023/10/20 03:35:36;;;;;;;1999.90;999.90;;;;;;;10.88;100.00;91367.22;5071011;28;20251;-51
2023/10/20 03:38:03;;;;;;;1999.90;999.90;;;;;;;10.89;100.00;91369.44;5070048;28;20173;-51
2023/10/20 03:40:36;;;;;;;1999.90;999.90;;;;;;;10.91;100.00;91360.75;5069881;28;20212;-54
2023/10/20 03:43:02;;;;;;;1999.90;999.90;;;;;;;10.89;100.00;91358.53;5070815;28;20168;-54
2023/10/20 03:45:28;;;;;;;1999.90;999.90;;;;;;;10.85;100.00;91358.06;5070033;28;20169;-55
2023/10/20 03:47:53;;;;;;;1999.90;999.90;;;;;;;10.82;100.00;91363.78;5069907;28;20256;-53
2023/10/20 03:50:18;;;;;;;1999.90;999.90;;;;;;;10.81;100.00;91362.31;5069922;28;20395;-55
2023/10/20 03:52:46;;;;;;;1999.90;999.90;;;;;;;10.79;100.00;91353.88;5069921;28;20398;-53
2023/10/20 03:55:15;;;;;;;1999.90;999.90;;;;;;;10.83;100.00;91351.63;5069981;28;20208;-53
2023/10/20 03:57:42;;;;;;;1999.90;999.90;;;;;;;10.85;100.00;91340.97;5069669;28;20171;-54
2023/10/20 04:00:17;;;;;;;1999.90;999.90;;;;;;;10.79;100.00;91338.25;5069634;28;20176;-52
2023/10/20 04:02:46;;;;;;;1999.90;999.90;;;;;;;10.80;100.00;91333.53;5069713;28;20164;-55
2023/10/20 04:05:13;;;;;;;1999.90;999.90;;;;;;;10.77;100.00;91323.59;5070085;28;20179;-53
2023/10/20 04:07:39;;;;;;;1999.90;999.90;;;;;;;10.76;100.00;91320.16;5069005;28;20247;-53
2023/10/20 04:10:06;;;;;;;1999.90;999.90;;;;;;;10.76;100.00;91297.56;5069507;28;20176;-50
2023/10/20 04:12:31;;;;;;;1999.90;999.90;;;;;;;10.71;100.00;91293.63;5069440;28;20170;-49
2023/10/20 04:14:57;;;;;;;1999.90;999.90;;;;;;;10.72;100.00;91288.91;5069197;28;20203;-53
2023/10/20 04:17:22;;;;;;;1999.90;999.90;;;;;;;10.66;100.00;91297.13;5069337;28;20177;-50
2023/10/20 04:19:49;;;;;;;1999.90;999.90;;;;;;;10.72;100.00;91305.28;5069383;28;20171;-55
2023/10/20 04:22:16;;;;;;;1999.90;999.90;;;;;;;10.74;100.00;91300.06;5069100;28;20279;-54
2023/10/20 04:24:41;;;;;;;1999.90;999.90;;;;;;;10.71;100.00;91303.81;5069186;28;20271;-54
2023/10/20 04:27:20;;;;;;;1999.90;999.90;;;;;;;10.67;100.00;91303.34;5069169;28;20199;-51
2023/10/20 04:43:42;;;;;;;1999.90;999.90;;;;;;;10.64;100.00;91287.97;5086503;28;20594;-54
2023/10/20 04:54:57;;;;;;;1999.90;999.90;;;;;;;10.49;100.00;91241.19;5065600;28;20465;-52
2023/10/20 04:58:14;;;;;;;1999.90;999.90;;;;;;;10.51;100.00;91238.69;5069173;28;20410;-51
2023/10/20 05:05:53;;;;;;;1999.90;999.90;;;;;;;10.53;100.00;91208.94;5055197;28;20194;-48
2023/10/20 05:08:21;;;;;;;1999.90;999.90;;;;;;;10.53;100.00;91200.75;5069216;28;20170;-53
2023/10/20 05:10:49;;;;;;;1999.90;999.90;;;;;;;10.56;100.00;91210.66;5068344;28;20498;-54
2023/10/20 05:13:14;;;;;;;1999.90;999.90;;;;;;;10.57;100.00;91201.22;5068517;28;20183;-54
2023/10/20 05:15:40;;;;;;;1999.90;999.90;;;;;;;10.65;100.00;91191.22;5068579;28;20172;-54
2023/10/20 05:18:11;;;;;;;1999.90;999.90;;;;;;;10.59;100.00;91179.63;5068096;28;20221;-52
2023/10/20 05:20:42;;;;;;;1999.90;999.90;;;;;;;10.57;100.00;91168.47;5068721;28;20277;-51
2023/10/20 05:23:10;;;;;;;1999.90;999.90;;;;;;;10.58;100.00;91170.72;5068836;28;20186;-55
2023/10/20 05:25:36;;;;;;;1999.90;999.90;;;;;;;10.64;100.00;91178.84;5068487;28;20181;-54
2023/10/20 05:28:01;;;;;;;1999.90;999.90;;;;;;;10.68;100.00;91182.03;5068483;28;20171;-52
2023/10/20 05:30:27;;;;;;;1999.90;999.90;;;;;;;10.62;100.00;91182.09;5067736;28;20204;-53
2023/10/20 05:32:53;;;;;;;1999.90;999.90;;;;;;;10.66;100.00;91170.88;5067875;28;20172;-49
2023/10/20 05:35:18;;;;;;;1999.90;999.90;;;;;;;10.68;100.00;91162.94;5067902;28;20375;-53
2023/10/20 05:37:44;;;;;;;1999.90;999.90;;;;;;;10.70;100.00;91144.09;5068428;28;20175;-53
2023/10/20 05:40:09;;;;;;;1999.90;999.90;;;;;;;10.67;100.00;91140.38;5067644;28;20226;-56
2023/10/20 05:42:35;;;;;;;1999.90;999.90;;;;;;;10.71;100.00;91159.22;5067661;28;20170;-50
2023/10/20 05:45:09;;;;;;;1999.90;999.90;;;;;;;10.72;100.00;91152.50;5068192;28;20377;-50
2023/10/20 05:47:34;;;;;;;1999.90;999.90;;;;;;;10.70;100.00;91144.81;5068146;28;20194;-54
2023/10/20 05:50:01;;;;;;;1999.90;999.90;;;;;;;10.68;100.00;91157.50;5067885;28;20193;-53
2023/10/20 05:52:27;;;;;;;1999.90;999.90;;;;;;;10.70;100.00;91165.94;5067504;28;20207;-54
2023/10/20 05:54:54;;;;;;;1999.90;999.90;;;;;;;10.71;100.00;91156.47;5067780;28;20274;-52
2023/10/20 05:57:19;;;;;;;1999.90;999.90;;;;;;;10.70;100.00;91158.47;5067470;28;20176;-53
2023/10/20 05:59:46;;;;;;;1999.90;999.90;;;;;;;10.74;100.00;91160.94;5067671;28;20209;-52
2023/10/20 06:02:11;;;;;;;1999.90;999.90;;;;;;;10.71;100.00;91162.66;5067219;28;20250;-53
2023/10/20 06:04:37;;;;;;;1999.90;999.90;;;;;;;10.68;100.00;91152.03;5067709;28;20206;-54
2023/10/20 06:07:04;;;;;;;1999.90;999.90;;;;;;;10.65;100.00;91147.59;5067876;28;20324;-54
2023/10/20 06:09:29;;;;;;;1999.90;999.90;;;;;;;10.61;100.00;91150.59;5067057;28;20173;-54
2023/10/20 06:11:54;;;;;;;1999.90;999.90;;;;;;;10.65;100.00;91125.75;5067178;28;20359;-53
2023/10/20 06:14:20;;;;;;;1999.90;999.90;;;;;;;10.59;100.00;91127.81;5067043;28;20203;-54
2023/10/20 06:16:46;;;;;;;1999.90;999.90;;;;;;;10.60;100.00;91140.19;5067465;28;20175;-56
2023/10/20 06:19:12;;;;;;;1999.90;999.90;;;;;;;10.59;100.00;91133.28;5066874;28;20170;-54
2023/10/20 06:21:38;;;;;;;1999.90;999.90;;;;;;;10.59;100.00;91133.28;5067047;28;20174;-54
2023/10/20 06:24:04;;;;;;;1999.90;999.90;;;;;;;10.53;100.00;91125.13;5067654;28;20170;-52
2023/10/20 06:26:29;;;;;;;1999.90;999.90;;;;;;;10.55;100.00;91132.78;5066980;28;20183;-53
2023/10/20 06:28:54;;;;;;;1999.90;999.90;;;;;;;10.53;100.00;91118.91;5066687;28;20199;-51
2023/10/20 06:31:41;;;;;;;1999.90;999.90;;;;;;;10.58;100.00;91121.59;5067442;28;20173;-53
2023/10/20 06:34:30;;;;;;;1999.90;999.90;;;;;;;10.57;100.00;91124.84;5066632;28;20229;-49
2023/10/20 06:37:07;;;;;;;1999.90;999.90;;;;;;;10.51;100.00;91122.16;5084569;28;20199;-48
2023/10/20 06:39:32;;;;;;;1999.90;999.90;;;;;;;10.53;100.00;91114.22;5067041;28;20197;-51
2023/10/20 06:41:58;;;;;;;1999.90;999.90;;;;;;;10.49;100.00;91107.53;5066913;28;20175;-54
2023/10/20 06:44:23;;;;;;;1999.90;999.90;;;;;;;10.52;100.00;91095.63;5066836;28;20175;-54
2023/10/20 06:46:48;;;;;;;1999.90;999.90;;;;;;;10.49;100.00;91075.53;5066829;28;20166;-53
2023/10/20 06:49:18;;;;;;;1999.90;999.90;;;;;;;10.47;100.00;91063.66;5067197;28;20216;-52
2023/10/20 06:51:47;;;;;;;1999.90;999.90;;;;;;;10.56;100.00;91055.19;5067231;28;20193;-53
2023/10/20 06:54:13;;;;;;;1999.90;999.90;;;;;;;10.59;100.00;91054.16;5067434;28;20234;-51
2023/10/20 06:56:38;;;;;;;1999.90;999.90;;;;;;;10.56;100.00;91047.00;5066658;28;20170;-54
2023/10/20 06:59:04;;;;;;;1999.90;999.90;;;;;;;10.58;100.00;91044.47;5066702;28;20174;-52
2023/10/20 07:01:32;;;;;;;1999.90;999.90;;;;;;;10.60;100.00;91031.81;5066709;28;20177;-55
2023/10/20 07:03:58;;;;;;;1999.90;999.90;;;;;;;10.61;100.00;91035.28;5066664;28;20252;-49
2023/10/20 07:06:23;;;;;;;1999.90;999.90;;;;;;;10.65;100.00;91022.09;5067057;28;20175;-52
2023/10/20 07:08:50;;;;;;;1999.90;999.90;;;;;;;10.70;100.00;91011.13;5067135;28;20193;-52
2023/10/20 07:11:16;;;;;;;1999.90;999.90;;;;;;;10.70;100.00;91008.41;5066725;28;20172;-54
2023/10/20 07:13:44;;;;;;;1999.90;999.90;;;;;;;10.75;100.00;90995.97;5066390;28;20205;-51
2023/10/20 07:16:11;;;;;;;1999.90;999.90;;;;;;;10.80;100.00;90989.72;5066526;28;20214;-52
2023/10/20 07:18:37;;;;;;;1999.90;999.90;;;;;;;10.86;100.00;90995.84;5067009;28;20417;-48
2023/10/20 07:21:03;;;;;;;1999.90;999.90;;;;;;;10.93;100.00;90984.38;5066574;28;20195;-53
2023/10/20 07:23:28;;;;;;;1999.90;999.90;;;;;;;10.99;100.00;90963.19;5066471;28;20222;-51
2023/10/20 07:25:53;;;;;;;1999.90;999.90;;;;;;;11.00;100.00;90959.94;5066484;28;20167;-48
2023/10/20 07:28:19;;;;;;;1999.90;999.90;;;;;;;11.09;100.00;90947.94;5066870;28;20174;-51
2023/10/20 07:30:45;;;;;;;1999.90;999.90;;;;;;;11.18;100.00;90947.59;5066784;28;20195;-52
2023/10/20 07:33:10;;;;;;;1999.90;999.90;;;;;;;11.23;100.00;90922.97;5066286;28;20243;-53
2023/10/20 07:35:39;;;;;;;1999.90;999.90;;;;;;;11.31;100.00;90912.16;5067041;28;20206;-55
2023/10/20 07:38:04;;;;;;;1999.90;999.90;;;;;;;11.30;100.00;90911.44;5066309;28;20179;-50
2023/10/20 07:40:34;;;;;;;1999.90;999.90;;;;;;;11.29;100.00;90909.94;5066461;28;20358;-53
2023/10/20 07:43:00;;;;;;;1999.90;999.90;;;;;;;11.31;100.00;90906.72;5069391;28;20366;-50
2023/10/20 07:45:28;;;;;;;1999.90;999.90;;;;;;;11.31;100.00;90895.78;5069977;28;20168;-54
2023/10/20 07:47:53;;;;;;;1999.90;999.90;;;;;;;11.40;100.00;90887.22;5069959;28;20175;-50
2023/10/20 07:50:19;;;;;;;1999.90;999.90;;;;;;;11.45;100.00;90878.22;5070391;28;20172;-55
2023/10/20 07:52:44;;;;;;;1999.90;999.90;;;;;;;11.53;100.00;90863.44;5069873;28;20174;-54
2023/10/20 07:55:10;;;;;;;1999.90;999.90;;;;;;;11.62;100.00;90854.16;5069725;28;20204;-54
2023/10/20 07:57:35;;;;;;;1999.90;999.90;;;;;;;11.78;100.00;90858.59;5069696;28;20168;-51
2023/10/20 08:00:01;;;;;;;1999.90;999.90;;;;;;;11.94;100.00;90852.09;5069721;28;20165;-47
2023/10/20 08:02:26;;;;;;;1999.90;999.90;;;;;;;11.98;100.00;90863.50;5070047;28;20173;-51
2023/10/20 08:04:51;;;;;;;1999.90;999.90;;;;;;;12.10;100.00;90881.19;5070201;28;20208;-54
2023/10/20 08:07:17;;;;;;;1999.90;999.90;;;;;;;12.16;100.00;90907.16;5069770;28;20176;-53
2023/10/20 08:09:42;;;;;;;1999.90;999.90;;;;;;;12.23;100.00;90917.50;5069582;28;20174;-55
2023/10/20 08:12:07;;;;;;;1999.90;999.90;;;;;;;12.43;100.00;90962.69;5069451;28;20196;-53
2023/10/20 08:14:34;;;;;;;1999.90;999.90;;;;;;;12.56;100.00;90998.25;5069317;28;20204;-53
2023/10/20 08:17:03;;;;;;;1999.90;999.90;;;;;;;12.74;100.00;91058.41;5069455;28;20175;-48
2023/10/20 08:19:29;;;;;;;1999.90;999.90;;;;;;;13.04;100.00;91119.19;5069814;28;20173;-48
2023/10/20 08:21:54;;;;;;;1999.90;999.90;;;;;;;13.24;100.00;91164.44;5069894;28;20193;-54
2023/10/20 08:24:20;;;;;;;1999.90;999.90;;;;;;;13.52;100.00;91225.00;5069313;28;20196;-52
2023/10/20 08:26:45;;;;;;;1999.90;999.90;;;;;;;13.71;100.00;91307.94;5069707;28;20200;-52
2023/10/20 08:29:11;;;;;;;1999.90;999.90;;;;;;;13.84;100.00;91400.47;5069628;28;20171;-52
2023/10/20 08:31:38;;;;;;;1999.90;999.90;;;;;;;14.22;100.00;91473.97;5069657;28;20204;-50
2023/10/20 08:34:03;;;;;;;1999.90;999.90;;;;;;;14.46;100.00;91558.94;5068909;28;20302;-52
2023/10/20 08:36:29;;;;;;;1999.90;999.90;;;;;;;14.67;100.00;91650.50;5068833;28;20166;-52
2023/10/20 08:38:54;;;;;;;1999.90;999.90;;;;;;;14.76;100.00;91710.56;5068938;28;20197;-52
2023/10/20 08:41:21;;;;;;;1999.90;999.90;;;;;;;14.85;100.00;91756.91;5068900;28;20173;-49
2023/10/20 08:43:47;;;;;;;1999.90;999.90;;;;;;;15.03;100.00;91797.38;5069066;28;20188;-51
2023/10/20 08:46:15;;;;;;;1999.90;999.90;;;;;;;15.15;100.00;91823.44;5069308;28;20201;-58
2023/10/20 08:48:45;;;;;;;1999.90;999.90;;;;;;;15.32;100.00;91873.47;5068912;28;20192;-50
2023/10/20 08:51:12;;;;;;;1999.90;999.90;;;;;;;15.47;100.00;91886.81;5068663;28;20273;-49
2023/10/20 08:53:38;;;;;;;1999.90;999.90;;;;;;;15.46;100.00;91902.56;5068585;28;20223;-50
2023/10/20 08:56:05;;;;;;;1999.90;999.90;;;;;;;15.56;100.00;91919.44;5068734;28;20169;-62
2023/10/20 08:58:31;;;;;;;1999.90;999.90;;;;;;;15.69;100.00;91936.03;5069121;28;20169;-52
2023/10/20 09:00:57;;;;;;;1999.90;999.90;;;;;;;15.87;100.00;91944.28;5069176;28;20176;-55
2023/10/20 09:03:25;;;;;;;1999.90;999.90;;;;;;;16.05;100.00;91943.53;5068360;28;20169;-55
2023/10/20 09:05:51;;;;;;;1999.90;999.90;;;;;;;16.14;100.00;91945.91;5068377;28;20169;-52
2023/10/20 09:08:17;;;;;;;1999.90;999.90;;;;;;;16.26;100.00;91952.75;5068388;28;20169;-53
2023/10/20 09:10:45;;;;;;;1999.90;999.90;;;;;;;16.31;100.00;91949.16;5068469;28;20233;-55
2023/10/20 09:13:11;;;;;;;1999.90;999.90;;;;;;;16.44;100.00;91959.50;5068335;28;20165;-53
2023/10/20 09:15:37;;;;;;;1999.90;999.90;;;;;;;16.54;100.00;91965.38;5068680;28;20264;-54
2023/10/20 09:18:08;;;;;;;1999.90;999.90;;;;;;;16.54;100.00;91970.88;5068351;28;20178;-54
2023/10/20 09:20:33;;;;;;;1999.90;999.90;;;;;;;16.63;100.00;91956.69;5068430;28;20157;-53
2023/10/20 09:22:58;;;;;;;1999.90;999.90;;;;;;;16.69;100.00;91954.59;5068221;28;20165;-56
2023/10/20 09:25:25;;;;;;;1999.90;999.90;;;;;;;16.77;100.00;91949.97;5067961;28;20172;-58
2023/10/20 09:27:51;;;;;;;1999.90;999.90;;;;;;;16.80;100.00;91933.13;5068077;28;20193;-57
2023/10/20 09:30:18;;;;;;;1999.90;999.90;;;;;;;16.74;100.00;91923.44;5068414;28;20180;-56
2023/10/20 09:32:44;;;;;;;1999.90;999.90;;;;;;;16.67;100.00;91929.59;5068222;28;20165;-56
2023/10/20 09:35:10;;;;;;;1999.90;999.90;;;;;;;16.73;100.00;91924.72;5068165;28;20236;-53
2023/10/20 09:37:36;;;;;;;1999.90;999.90;;;;;;;16.74;100.00;91939.97;5067882;28;20165;-54
2023/10/20 09:40:05;;;;;;;1999.90;999.90;;;;;;;16.89;100.00;91943.00;5068465;28;20185;-52
2023/10/20 09:42:57;;;;;;;1999.90;999.90;;;;;;;16.98;100.00;91942.59;5068238;28;20192;-54
2023/10/20 09:45:33;;;;;;;1999.90;999.90;;;;;;;17.07;100.00;91939.41;5068210;28;20192;-52
2023/10/20 09:48:04;;;;;;;1999.90;999.90;;;;;;;17.24;100.00;91953.63;5068535;28;20161;-56
2023/10/20 09:50:31;;;;;;;1999.90;999.90;;;;;;;17.51;100.00;91944.88;5068039;28;20157;-54
2023/10/20 09:52:58;;;;;;;1999.90;999.90;;;;;;;18.14;100.00;91938.28;5067649;28;20177;-54
2023/10/20 09:55:25;;;;;;;1999.90;999.90;;;;;;;19.87;100.00;91946.00;5067160;28;20226;-53
2023/10/20 09:57:50;;;;;;;1999.90;999.90;;;;;;;21.59;100.00;91937.28;5068073;28;20177;-54
2023/10/20 10:00:30;;;;;;;1999.90;999.90;;;;;;;22.34;100.00;91939.84;5067288;28;20173;-56
2023/10/20 10:02:59;;;;;;;1999.90;999.90;;;;;;;22.85;100.00;91941.44;5068327;28;20176;-54
2023/10/20 10:05:25;;;;;;;1999.90;999.90;;;;;;;21.56;100.00;91946.72;5067381;28;20169;-57
2023/10/20 10:08:06;;;;;;;1999.90;999.90;;;;;;;20.99;100.00;91953.22;5067421;28;20173;-52
2023/10/20 10:10:33;;;;;;;1999.90;999.90;;;;;;;20.72;100.00;91958.31;5067174;28;20232;-54
2023/10/20 10:13:05;;;;;;;1999.90;999.90;;;;;;;20.46;100.00;91955.09;5067348;28;20180;-52
2023/10/20 10:15:41;;;;;;;1999.90;999.90;;;;;;;20.47;100.00;91948.28;5067017;28;20215;-55
2023/10/20 10:18:09;;;;;;;1999.90;999.90;;;;;;;20.45;100.00;91946.06;5067679;28;20200;-56
2023/10/20 10:20:46;;;;;;;1999.90;999.90;;;;;;;20.55;100.00;91938.69;5066928;28;20334;-56
2023/10/20 10:23:14;;;;;;;1999.90;999.90;;;;;;;20.57;100.00;91933.34;5067125;28;20260;-49
2023/10/20 10:25:47;;;;;;;1999.90;999.90;;;;;;;20.55;100.00;91941.47;5067232;28;20173;-52
2023/10/20 10:28:17;;;;;;;1999.90;999.90;;;;;;;20.64;100.00;91943.69;5066618;28;20181;-56
2023/10/20 10:30:45;;;;;;;1999.90;999.90;;;;;;;21.77;100.00;91938.94;5066988;28;20181;-53
2023/10/20 10:33:12;;;;;;;1999.90;999.90;;;;;;;23.71;100.00;91934.84;5067532;28;20169;-52
2023/10/20 10:35:39;;;;;;;1999.90;999.90;;;;;;;23.35;100.00;91942.97;5067364;28;20216;-52
2023/10/20 10:38:09;;;;;;;1999.90;999.90;;;;;;;23.33;100.00;91940.00;5066781;28;20248;-54
2023/10/20 10:40:44;;;;;;;1999.90;999.90;;;;;;;23.53;100.00;91941.72;5066818;28;20185;-54
2023/10/20 10:43:14;;;;;;;1999.90;999.90;;;;;;;23.69;100.00;91940.25;5067192;28;20252;-55
2023/10/20 10:45:40;;;;;;;1999.90;999.90;;;;;;;24.23;100.00;91953.09;5066873;28;20182;-52
2023/10/20 10:48:07;;;;;;;1999.90;999.90;;;;;;;23.65;100.00;91953.84;5067484;28;20346;-54
2023/10/20 10:50:35;;;;;;;1999.90;999.90;;;;;;;23.23;100.00;91958.69;5067254;28;20177;-56
2023/10/20 10:53:00;;;;;;;1999.90;999.90;;;;;;;22.96;100.00;91963.28;5066870;28;20173;-49
2023/10/20 10:55:26;;;;;;;1999.90;999.90;;;;;;;22.72;100.00;91961.22;5067075;28;20205;-49
2023/10/20 10:57:52;;;;;;;1999.90;999.90;;;;;;;22.57;100.00;91970.34;5067286;28;20215;-50
2023/10/20 11:00:18;;;;;;;1999.90;999.90;;;;;;;22.38;100.00;91990.25;5067542;28;20177;-58
2023/10/20 11:02:44;;;;;;;1999.90;999.90;;;;;;;22.34;100.00;92012.16;5066351;28;20252;-56
2023/10/20 11:05:09;;;;;;;1999.90;999.90;;;;;;;22.12;100.00;92063.00;5067328;28;20176;-55
2023/10/20 11:07:35;;;;;;;1999.90;999.90;;;;;;;22.01;100.00;92046.72;5066721;28;20181;-55
2023/10/20 11:10:02;;;;;;;1999.90;999.90;;;;;;;21.92;100.00;92054.84;5066971;28;20201;-54
2023/10/20 11:12:27;;;;;;;1999.90;999.90;;;;;;;21.73;100.00;92066.38;5067087;28;20173;-55
2023/10/20 11:14:59;;;;;;;1999.90;999.90;;;;;;;21.72;100.00;92087.13;5066617;28;20366;-54